sensor_id;sensor_type;location;lat;lon;timestamp;P1;durP1;ratioP1;P2;durP2;ratioP2
16472;SDS011;8347;52.486;13.432;2024-03-02T00:02:08;65.15;;;37.95;;
16472;SDS011;8347;52.486;13.432;2024-03-02T00:04:55;68.00;;;36.65;;
16472;SDS011;8347;52.486;13.432;2024-03-02T00:07:42;60.35;;;34.53;;
16472;SDS011;8347;52.486;13.432;2024-03-02T00:10:35;57.78;;;35.17;;
16472;SDS011;8347;52.486;13.432;2024-03-02T00:13:25;66.32;;;36.10;;
16472;SDS011;8347;52.486;13.432;2024-03-02T00:16:11;60.80;;;35.42;;
16472;SDS011;8347;52.486;13.432;2024-03-02T00:19:05;60.75;;;34.22;;
16472;SDS011;8347;52.486;13.432;2024-03-02T00:21:52;58.28;;;34.10;;
16472;SDS011;8347;52.486;13.432;2024-03-02T00:24:39;54.10;;;34.08;;
16472;SDS011;8347;52.486;13.432;2024-03-02T00:27:25;70.25;;;35.95;;
16472;SDS011;8347;52.486;13.432;2024-03-02T00:33:26;60.88;;;34.03;;
16472;SDS011;8347;52.486;13.432;2024-03-02T00:36:26;58.83;;;33.92;;
16472;SDS011;8347;52.486;13.432;2024-03-02T00:39:15;65.05;;;37.17;;
16472;SDS011;8347;52.486;13.432;2024-03-02T00:42:03;64.75;;;35.88;;
16472;SDS011;8347;52.486;13.432;2024-03-02T00:44:50;71.85;;;38.03;;
16472;SDS011;8347;52.486;13.432;2024-03-02T00:47:39;60.05;;;35.95;;
16472;SDS011;8347;52.486;13.432;2024-03-02T00:50:26;64.95;;;37.00;;
16472;SDS011;8347;52.486;13.432;2024-03-02T00:53:12;62.90;;;36.83;;
16472;SDS011;8347;52.486;13.432;2024-03-02T00:55:59;63.33;;;35.90;;
16472;SDS011;8347;52.486;13.432;2024-03-02T00:58:47;65.15;;;37.75;;
16472;SDS011;8347;52.486;13.432;2024-03-02T01:01:33;66.97;;;36.63;;
16472;SDS011;8347;52.486;13.432;2024-03-02T01:04:20;63.33;;;37.45;;
16472;SDS011;8347;52.486;13.432;2024-03-02T01:07:06;65.13;;;36.90;;
16472;SDS011;8347;52.486;13.432;2024-03-02T01:09:53;65.50;;;37.33;;
16472;SDS011;8347;52.486;13.432;2024-03-02T01:12:39;67.10;;;36.97;;
16472;SDS011;8347;52.486;13.432;2024-03-02T01:15:26;59.60;;;35.92;;
16472;SDS011;8347;52.486;13.432;2024-03-02T01:18:12;72.38;;;39.72;;
16472;SDS011;8347;52.486;13.432;2024-03-02T01:20:59;71.70;;;38.55;;
16472;SDS011;8347;52.486;13.432;2024-03-02T01:23:45;79.30;;;42.20;;
16472;SDS011;8347;52.486;13.432;2024-03-02T01:26:32;67.05;;;36.88;;
16472;SDS011;8347;52.486;13.432;2024-03-02T01:29:18;62.58;;;37.15;;
16472;SDS011;8347;52.486;13.432;2024-03-02T01:32:05;72.10;;;37.78;;
16472;SDS011;8347;52.486;13.432;2024-03-02T01:34:52;67.80;;;39.33;;
16472;SDS011;8347;52.486;13.432;2024-03-02T01:37:38;68.63;;;38.50;;
16472;SDS011;8347;52.486;13.432;2024-03-02T01:40:24;72.40;;;39.65;;
16472;SDS011;8347;52.486;13.432;2024-03-02T01:43:12;74.07;;;41.45;;
16472;SDS011;8347;52.486;13.432;2024-03-02T01:45:58;65.38;;;38.33;;
16472;SDS011;8347;52.486;13.432;2024-03-02T01:48:45;68.07;;;39.38;;
16472;SDS011;8347;52.486;13.432;2024-03-02T01:51:33;74.80;;;40.30;;
16472;SDS011;8347;52.486;13.432;2024-03-02T01:54:20;76.97;;;40.13;;
16472;SDS011;8347;52.486;13.432;2024-03-02T01:57:06;72.68;;;38.75;;
16472;SDS011;8347;52.486;13.432;2024-03-02T01:59:53;69.97;;;42.92;;
16472;SDS011;8347;52.486;13.432;2024-03-02T02:02:39;68.68;;;39.42;;
16472;SDS011;8347;52.486;13.432;2024-03-02T02:05:26;70.43;;;39.47;;
16472;SDS011;8347;52.486;13.432;2024-03-02T02:08:12;76.85;;;42.30;;
16472;SDS011;8347;52.486;13.432;2024-03-02T02:10:59;71.05;;;40.83;;
16472;SDS011;8347;52.486;13.432;2024-03-02T02:13:45;72.47;;;40.75;;
16472;SDS011;8347;52.486;13.432;2024-03-02T02:16:32;76.88;;;41.85;;
16472;SDS011;8347;52.486;13.432;2024-03-02T02:19:19;81.78;;;43.17;;
16472;SDS011;8347;52.486;13.432;2024-03-02T02:22:05;75.43;;;40.60;;
16472;SDS011;8347;52.486;13.432;2024-03-02T02:24:52;74.18;;;39.33;;
16472;SDS011;8347;52.486;13.432;2024-03-02T02:27:39;82.05;;;42.00;;
16472;SDS011;8347;52.486;13.432;2024-03-02T02:30:26;73.85;;;42.35;;
16472;SDS011;8347;52.486;13.432;2024-03-02T02:33:13;77.20;;;41.45;;
16472;SDS011;8347;52.486;13.432;2024-03-02T02:35:59;75.85;;;42.03;;
16472;SDS011;8347;52.486;13.432;2024-03-02T02:38:46;74.50;;;40.05;;
16472;SDS011;8347;52.486;13.432;2024-03-02T02:41:34;73.60;;;40.33;;
16472;SDS011;8347;52.486;13.432;2024-03-02T02:44:21;73.38;;;39.35;;
16472;SDS011;8347;52.486;13.432;2024-03-02T02:47:07;74.55;;;39.92;;
16472;SDS011;8347;52.486;13.432;2024-03-02T02:49:54;77.60;;;41.50;;
16472;SDS011;8347;52.486;13.432;2024-03-02T02:52:40;74.55;;;41.50;;
16472;SDS011;8347;52.486;13.432;2024-03-02T02:55:27;77.70;;;42.72;;
16472;SDS011;8347;52.486;13.432;2024-03-02T02:58:14;71.43;;;39.80;;
16472;SDS011;8347;52.486;13.432;2024-03-02T03:01:00;73.05;;;37.83;;
16472;SDS011;8347;52.486;13.432;2024-03-02T03:03:47;68.38;;;38.63;;
16472;SDS011;8347;52.486;13.432;2024-03-02T03:06:33;71.93;;;39.78;;
16472;SDS011;8347;52.486;13.432;2024-03-02T03:09:20;72.38;;;40.25;;
16472;SDS011;8347;52.486;13.432;2024-03-02T03:12:06;77.32;;;42.25;;
16472;SDS011;8347;52.486;13.432;2024-03-02T03:14:53;79.57;;;40.38;;
16472;SDS011;8347;52.486;13.432;2024-03-02T03:17:40;74.65;;;39.28;;
16472;SDS011;8347;52.486;13.432;2024-03-02T03:20:26;71.63;;;39.85;;
16472;SDS011;8347;52.486;13.432;2024-03-02T03:23:13;66.07;;;38.22;;
16472;SDS011;8347;52.486;13.432;2024-03-02T03:26:01;68.90;;;38.92;;
16472;SDS011;8347;52.486;13.432;2024-03-02T03:28:49;65.07;;;38.30;;
16472;SDS011;8347;52.486;13.432;2024-03-02T03:31:35;71.80;;;38.88;;
16472;SDS011;8347;52.486;13.432;2024-03-02T03:34:22;75.13;;;38.85;;
16472;SDS011;8347;52.486;13.432;2024-03-02T03:37:08;69.28;;;39.85;;
16472;SDS011;8347;52.486;13.432;2024-03-02T03:39:55;65.50;;;37.20;;
16472;SDS011;8347;52.486;13.432;2024-03-02T03:42:41;72.82;;;40.15;;
16472;SDS011;8347;52.486;13.432;2024-03-02T03:45:28;60.55;;;35.75;;
16472;SDS011;8347;52.486;13.432;2024-03-02T03:48:16;64.55;;;37.83;;
16472;SDS011;8347;52.486;13.432;2024-03-02T03:51:02;69.28;;;39.45;;
16472;SDS011;8347;52.486;13.432;2024-03-02T03:53:49;61.58;;;36.45;;
16472;SDS011;8347;52.486;13.432;2024-03-02T03:56:35;63.30;;;35.83;;
16472;SDS011;8347;52.486;13.432;2024-03-02T03:59:22;57.72;;;37.13;;
16472;SDS011;8347;52.486;13.432;2024-03-02T04:02:08;72.30;;;37.13;;
16472;SDS011;8347;52.486;13.432;2024-03-02T04:04:55;58.75;;;35.35;;
16472;SDS011;8347;52.486;13.432;2024-03-02T04:07:41;63.17;;;37.03;;
16472;SDS011;8347;52.486;13.432;2024-03-02T04:10:28;62.85;;;38.35;;
16472;SDS011;8347;52.486;13.432;2024-03-02T04:13:16;64.18;;;35.33;;
16472;SDS011;8347;52.486;13.432;2024-03-02T04:16:02;60.55;;;36.70;;
16472;SDS011;8347;52.486;13.432;2024-03-02T04:18:50;58.33;;;32.38;;
16472;SDS011;8347;52.486;13.432;2024-03-02T04:21:37;57.22;;;33.72;;
16472;SDS011;8347;52.486;13.432;2024-03-02T04:24:24;61.10;;;34.75;;
16472;SDS011;8347;52.486;13.432;2024-03-02T04:27:10;54.58;;;33.35;;
16472;SDS011;8347;52.486;13.432;2024-03-02T04:29:57;66.35;;;31.65;;
16472;SDS011;8347;52.486;13.432;2024-03-02T04:32:43;57.88;;;32.92;;
16472;SDS011;8347;52.486;13.432;2024-03-02T04:35:32;59.78;;;34.47;;
16472;SDS011;8347;52.486;13.432;2024-03-02T04:38:18;57.08;;;32.10;;
16472;SDS011;8347;52.486;13.432;2024-03-02T04:41:05;53.53;;;32.38;;
16472;SDS011;8347;52.486;13.432;2024-03-02T04:43:51;48.85;;;31.00;;
16472;SDS011;8347;52.486;13.432;2024-03-02T04:46:38;55.67;;;31.08;;
16472;SDS011;8347;52.486;13.432;2024-03-02T04:49:25;57.05;;;33.03;;
16472;SDS011;8347;52.486;13.432;2024-03-02T04:52:11;51.65;;;30.88;;
16472;SDS011;8347;52.486;13.432;2024-03-02T04:54:58;54.90;;;31.83;;
16472;SDS011;8347;52.486;13.432;2024-03-02T04:58:02;54.80;;;30.95;;
16472;SDS011;8347;52.486;13.432;2024-03-02T05:00:49;58.67;;;33.15;;
16472;SDS011;8347;52.486;13.432;2024-03-02T05:03:35;61.13;;;37.00;;
16472;SDS011;8347;52.486;13.432;2024-03-02T05:06:22;53.03;;;31.77;;
16472;SDS011;8347;52.486;13.432;2024-03-02T05:09:09;60.03;;;34.13;;
16472;SDS011;8347;52.486;13.432;2024-03-02T05:11:56;55.97;;;33.58;;
16472;SDS011;8347;52.486;13.432;2024-03-02T05:15:06;55.75;;;32.47;;
16472;SDS011;8347;52.486;13.432;2024-03-02T05:17:53;54.45;;;31.48;;
16472;SDS011;8347;52.486;13.432;2024-03-02T05:20:40;51.88;;;31.38;;
16472;SDS011;8347;52.486;13.432;2024-03-02T05:23:26;52.17;;;31.50;;
16472;SDS011;8347;52.486;13.432;2024-03-02T05:26:13;53.83;;;31.38;;
16472;SDS011;8347;52.486;13.432;2024-03-02T05:28:59;51.30;;;31.75;;
16472;SDS011;8347;52.486;13.432;2024-03-02T05:31:46;51.92;;;30.50;;
16472;SDS011;8347;52.486;13.432;2024-03-02T05:34:33;55.22;;;31.40;;
16472;SDS011;8347;52.486;13.432;2024-03-02T05:37:21;53.33;;;31.70;;
16472;SDS011;8347;52.486;13.432;2024-03-02T05:40:07;51.38;;;30.50;;
16472;SDS011;8347;52.486;13.432;2024-03-02T05:42:54;53.38;;;32.17;;
16472;SDS011;8347;52.486;13.432;2024-03-02T05:45:41;58.35;;;32.67;;
16472;SDS011;8347;52.486;13.432;2024-03-02T05:48:27;54.90;;;33.30;;
16472;SDS011;8347;52.486;13.432;2024-03-02T05:51:14;58.20;;;32.97;;
16472;SDS011;8347;52.486;13.432;2024-03-02T05:54:01;58.05;;;34.13;;
16472;SDS011;8347;52.486;13.432;2024-03-02T05:56:48;64.18;;;34.75;;
16472;SDS011;8347;52.486;13.432;2024-03-02T05:59:34;56.80;;;34.97;;
16472;SDS011;8347;52.486;13.432;2024-03-02T06:02:21;60.30;;;35.63;;
16472;SDS011;8347;52.486;13.432;2024-03-02T06:05:07;66.20;;;37.00;;
16472;SDS011;8347;52.486;13.432;2024-03-02T06:07:54;64.00;;;35.97;;
16472;SDS011;8347;52.486;13.432;2024-03-02T06:10:41;64.57;;;35.00;;
16472;SDS011;8347;52.486;13.432;2024-03-02T06:13:27;67.22;;;39.88;;
16472;SDS011;8347;52.486;13.432;2024-03-02T06:16:14;61.35;;;36.30;;
16472;SDS011;8347;52.486;13.432;2024-03-02T06:19:01;64.28;;;37.15;;
16472;SDS011;8347;52.486;13.432;2024-03-02T06:21:47;71.43;;;39.92;;
16472;SDS011;8347;52.486;13.432;2024-03-02T06:24:34;69.35;;;40.05;;
16472;SDS011;8347;52.486;13.432;2024-03-02T06:27:22;68.38;;;38.75;;
16472;SDS011;8347;52.486;13.432;2024-03-02T06:30:08;79.68;;;39.53;;
16472;SDS011;8347;52.486;13.432;2024-03-02T06:32:55;66.72;;;36.80;;
16472;SDS011;8347;52.486;13.432;2024-03-02T06:35:42;72.88;;;38.88;;
16472;SDS011;8347;52.486;13.432;2024-03-02T06:38:28;63.72;;;36.70;;
16472;SDS011;8347;52.486;13.432;2024-03-02T06:41:17;69.22;;;36.72;;
16472;SDS011;8347;52.486;13.432;2024-03-02T06:44:04;74.00;;;40.33;;
16472;SDS011;8347;52.486;13.432;2024-03-02T06:46:52;68.97;;;38.60;;
16472;SDS011;8347;52.486;13.432;2024-03-02T06:49:38;68.78;;;38.40;;
16472;SDS011;8347;52.486;13.432;2024-03-02T06:52:25;65.53;;;37.72;;
16472;SDS011;8347;52.486;13.432;2024-03-02T06:55:11;64.03;;;36.70;;
16472;SDS011;8347;52.486;13.432;2024-03-02T06:57:58;66.25;;;36.08;;
16472;SDS011;8347;52.486;13.432;2024-03-02T07:00:44;69.65;;;38.33;;
16472;SDS011;8347;52.486;13.432;2024-03-02T07:03:30;69.32;;;40.50;;
16472;SDS011;8347;52.486;13.432;2024-03-02T07:06:18;75.97;;;40.53;;
16472;SDS011;8347;52.486;13.432;2024-03-02T07:09:05;72.30;;;39.88;;
16472;SDS011;8347;52.486;13.432;2024-03-02T07:11:52;70.50;;;38.20;;
16472;SDS011;8347;52.486;13.432;2024-03-02T07:14:39;72.38;;;39.33;;
16472;SDS011;8347;52.486;13.432;2024-03-02T07:17:42;62.30;;;36.30;;
16472;SDS011;8347;52.486;13.432;2024-03-02T07:20:29;70.18;;;38.83;;
16472;SDS011;8347;52.486;13.432;2024-03-02T07:23:16;74.82;;;39.05;;
16472;SDS011;8347;52.486;13.432;2024-03-02T07:26:02;63.05;;;37.13;;
16472;SDS011;8347;52.486;13.432;2024-03-02T07:28:49;67.45;;;36.30;;
16472;SDS011;8347;52.486;13.432;2024-03-02T07:31:35;69.53;;;36.45;;
16472;SDS011;8347;52.486;13.432;2024-03-02T07:34:22;76.05;;;38.28;;
16472;SDS011;8347;52.486;13.432;2024-03-02T07:37:09;69.57;;;37.22;;
16472;SDS011;8347;52.486;13.432;2024-03-02T07:39:55;65.25;;;35.15;;
16472;SDS011;8347;52.486;13.432;2024-03-02T07:42:42;70.85;;;38.63;;
16472;SDS011;8347;52.486;13.432;2024-03-02T07:45:28;66.60;;;36.75;;
16472;SDS011;8347;52.486;13.432;2024-03-02T07:48:15;62.63;;;36.28;;
16472;SDS011;8347;52.486;13.432;2024-03-02T07:51:02;66.90;;;38.50;;
16472;SDS011;8347;52.486;13.432;2024-03-02T07:53:49;64.85;;;37.05;;
16472;SDS011;8347;52.486;13.432;2024-03-02T07:56:35;62.17;;;36.00;;
16472;SDS011;8347;52.486;13.432;2024-03-02T07:59:22;62.50;;;37.38;;
16472;SDS011;8347;52.486;13.432;2024-03-02T08:02:08;62.65;;;36.67;;
16472;SDS011;8347;52.486;13.432;2024-03-02T08:04:55;60.80;;;35.10;;
16472;SDS011;8347;52.486;13.432;2024-03-02T08:07:43;65.28;;;36.70;;
16472;SDS011;8347;52.486;13.432;2024-03-02T08:10:32;58.85;;;35.50;;
16472;SDS011;8347;52.486;13.432;2024-03-02T08:13:19;57.75;;;34.47;;
16472;SDS011;8347;52.486;13.432;2024-03-02T08:16:06;63.80;;;36.33;;
16472;SDS011;8347;52.486;13.432;2024-03-02T08:18:55;56.28;;;34.38;;
16472;SDS011;8347;52.486;13.432;2024-03-02T08:21:43;64.03;;;35.88;;
16472;SDS011;8347;52.486;13.432;2024-03-02T08:24:30;60.28;;;36.53;;
16472;SDS011;8347;52.486;13.432;2024-03-02T08:27:17;59.38;;;33.25;;
16472;SDS011;8347;52.486;13.432;2024-03-02T08:30:03;62.17;;;34.58;;
16472;SDS011;8347;52.486;13.432;2024-03-02T08:32:52;66.57;;;35.17;;
16472;SDS011;8347;52.486;13.432;2024-03-02T08:35:38;53.70;;;31.73;;
16472;SDS011;8347;52.486;13.432;2024-03-02T08:38:25;56.60;;;33.03;;
16472;SDS011;8347;52.486;13.432;2024-03-02T08:41:12;58.13;;;34.22;;
16472;SDS011;8347;52.486;13.432;2024-03-02T08:43:59;57.00;;;34.95;;
16472;SDS011;8347;52.486;13.432;2024-03-02T08:46:46;55.10;;;33.03;;
16472;SDS011;8347;52.486;13.432;2024-03-02T08:49:33;56.88;;;32.83;;
16472;SDS011;8347;52.486;13.432;2024-03-02T08:52:19;57.45;;;33.40;;
16472;SDS011;8347;52.486;13.432;2024-03-02T08:55:06;62.85;;;32.42;;
16472;SDS011;8347;52.486;13.432;2024-03-02T08:57:53;56.78;;;32.75;;
16472;SDS011;8347;52.486;13.432;2024-03-02T09:00:40;50.95;;;31.75;;
16472;SDS011;8347;52.486;13.432;2024-03-02T09:03:27;55.13;;;33.10;;
16472;SDS011;8347;52.486;13.432;2024-03-02T09:06:14;58.00;;;33.47;;
16472;SDS011;8347;52.486;13.432;2024-03-02T09:09:05;55.22;;;31.63;;
16472;SDS011;8347;52.486;13.432;2024-03-02T09:11:53;64.97;;;36.80;;
16472;SDS011;8347;52.486;13.432;2024-03-02T09:14:43;55.85;;;32.42;;
16472;SDS011;8347;52.486;13.432;2024-03-02T09:17:29;56.13;;;33.70;;
16472;SDS011;8347;52.486;13.432;2024-03-02T09:20:16;57.25;;;33.55;;
16472;SDS011;8347;52.486;13.432;2024-03-02T09:23:03;52.42;;;30.40;;
16472;SDS011;8347;52.486;13.432;2024-03-02T09:25:49;56.15;;;32.78;;
16472;SDS011;8347;52.486;13.432;2024-03-02T09:28:36;48.63;;;29.88;;
16472;SDS011;8347;52.486;13.432;2024-03-02T09:31:22;55.30;;;32.53;;
16472;SDS011;8347;52.486;13.432;2024-03-02T09:34:09;54.83;;;31.60;;
16472;SDS011;8347;52.486;13.432;2024-03-02T09:36:55;49.40;;;30.52;;
16472;SDS011;8347;52.486;13.432;2024-03-02T09:39:43;52.65;;;31.80;;
16472;SDS011;8347;52.486;13.432;2024-03-02T09:42:30;50.08;;;30.88;;
16472;SDS011;8347;52.486;13.432;2024-03-02T09:45:22;45.95;;;28.60;;
16472;SDS011;8347;52.486;13.432;2024-03-02T09:48:09;47.72;;;28.63;;
16472;SDS011;8347;52.486;13.432;2024-03-02T09:50:55;50.72;;;27.63;;
16472;SDS011;8347;52.486;13.432;2024-03-02T09:53:42;43.38;;;25.80;;
16472;SDS011;8347;52.486;13.432;2024-03-02T09:56:29;48.80;;;28.75;;
16472;SDS011;8347;52.486;13.432;2024-03-02T09:59:15;51.22;;;28.98;;
16472;SDS011;8347;52.486;13.432;2024-03-02T10:02:05;42.70;;;26.98;;
16472;SDS011;8347;52.486;13.432;2024-03-02T10:04:52;44.67;;;27.80;;
16472;SDS011;8347;52.486;13.432;2024-03-02T10:07:39;46.65;;;28.52;;
16472;SDS011;8347;52.486;13.432;2024-03-02T10:10:26;44.03;;;28.85;;
16472;SDS011;8347;52.486;13.432;2024-03-02T10:13:20;44.78;;;27.55;;
16472;SDS011;8347;52.486;13.432;2024-03-02T10:16:12;44.22;;;26.27;;
16472;SDS011;8347;52.486;13.432;2024-03-02T10:19:01;45.25;;;26.08;;
16472;SDS011;8347;52.486;13.432;2024-03-02T10:22:01;43.55;;;26.15;;
16472;SDS011;8347;52.486;13.432;2024-03-02T10:24:48;39.40;;;24.48;;
16472;SDS011;8347;52.486;13.432;2024-03-02T10:27:35;40.90;;;23.95;;
16472;SDS011;8347;52.486;13.432;2024-03-02T10:30:21;37.40;;;22.98;;
16472;SDS011;8347;52.486;13.432;2024-03-02T10:33:08;35.03;;;22.98;;
16472;SDS011;8347;52.486;13.432;2024-03-02T10:35:55;38.88;;;23.13;;
16472;SDS011;8347;52.486;13.432;2024-03-02T10:38:42;38.35;;;23.67;;
16472;SDS011;8347;52.486;13.432;2024-03-02T10:41:29;37.58;;;22.55;;
16472;SDS011;8347;52.486;13.432;2024-03-02T10:44:18;33.70;;;21.90;;
16472;SDS011;8347;52.486;13.432;2024-03-02T10:47:05;31.02;;;20.70;;
16472;SDS011;8347;52.486;13.432;2024-03-02T10:49:53;34.50;;;22.02;;
16472;SDS011;8347;52.486;13.432;2024-03-02T10:52:40;28.35;;;19.38;;
16472;SDS011;8347;52.486;13.432;2024-03-02T10:55:28;32.92;;;20.42;;
16472;SDS011;8347;52.486;13.432;2024-03-02T10:58:15;29.45;;;19.27;;
16472;SDS011;8347;52.486;13.432;2024-03-02T11:01:02;33.33;;;21.25;;
16472;SDS011;8347;52.486;13.432;2024-03-02T11:03:49;34.10;;;21.23;;
16472;SDS011;8347;52.486;13.432;2024-03-02T11:06:36;32.38;;;19.38;;
16472;SDS011;8347;52.486;13.432;2024-03-02T11:09:25;33.83;;;19.83;;
16472;SDS011;8347;52.486;13.432;2024-03-02T11:12:34;29.10;;;20.52;;
16472;SDS011;8347;52.486;13.432;2024-03-02T11:15:23;32.78;;;20.30;;
16472;SDS011;8347;52.486;13.432;2024-03-02T11:18:12;35.15;;;21.45;;
16472;SDS011;8347;52.486;13.432;2024-03-02T11:20:59;32.90;;;21.17;;
16472;SDS011;8347;52.486;13.432;2024-03-02T11:23:46;32.35;;;19.15;;
16472;SDS011;8347;52.486;13.432;2024-03-02T11:26:33;30.42;;;19.02;;
16472;SDS011;8347;52.486;13.432;2024-03-02T11:32:24;31.50;;;18.60;;
16472;SDS011;8347;52.486;13.432;2024-03-02T11:35:10;31.02;;;18.75;;
16472;SDS011;8347;52.486;13.432;2024-03-02T11:37:57;30.17;;;20.05;;
16472;SDS011;8347;52.486;13.432;2024-03-02T11:40:44;32.47;;;20.08;;
16472;SDS011;8347;52.486;13.432;2024-03-02T11:43:31;32.03;;;20.42;;
16472;SDS011;8347;52.486;13.432;2024-03-02T11:46:18;30.00;;;19.25;;
16472;SDS011;8347;52.486;13.432;2024-03-02T11:49:09;34.22;;;17.98;;
16472;SDS011;8347;52.486;13.432;2024-03-02T11:52:00;31.27;;;17.80;;
16472;SDS011;8347;52.486;13.432;2024-03-02T11:54:47;31.65;;;18.30;;
16472;SDS011;8347;52.486;13.432;2024-03-02T11:57:35;28.30;;;17.80;;
16472;SDS011;8347;52.486;13.432;2024-03-02T12:00:21;28.60;;;17.17;;
16472;SDS011;8347;52.486;13.432;2024-03-02T12:03:09;29.98;;;18.40;;
16472;SDS011;8347;52.486;13.432;2024-03-02T12:05:58;28.95;;;18.90;;
16472;SDS011;8347;52.486;13.432;2024-03-02T12:08:45;31.58;;;19.50;;
16472;SDS011;8347;52.486;13.432;2024-03-02T12:11:32;25.25;;;16.60;;
16472;SDS011;8347;52.486;13.432;2024-03-02T12:14:18;30.20;;;18.33;;
16472;SDS011;8347;52.486;13.432;2024-03-02T12:17:05;28.95;;;17.83;;
16472;SDS011;8347;52.486;13.432;2024-03-02T12:19:52;33.88;;;19.17;;
16472;SDS011;8347;52.486;13.432;2024-03-02T12:22:38;35.80;;;20.98;;
16472;SDS011;8347;52.486;13.432;2024-03-02T12:25:25;32.08;;;18.48;;
16472;SDS011;8347;52.486;13.432;2024-03-02T12:28:12;31.95;;;19.25;;
16472;SDS011;8347;52.486;13.432;2024-03-02T12:30:59;28.65;;;18.30;;
16472;SDS011;8347;52.486;13.432;2024-03-02T12:33:46;34.47;;;20.45;;
16472;SDS011;8347;52.486;13.432;2024-03-02T12:36:39;31.35;;;19.02;;
16472;SDS011;8347;52.486;13.432;2024-03-02T12:39:27;28.77;;;18.63;;
16472;SDS011;8347;52.486;13.432;2024-03-02T12:42:13;30.48;;;19.45;;
16472;SDS011;8347;52.486;13.432;2024-03-02T12:44:59;29.38;;;17.10;;
16472;SDS011;8347;52.486;13.432;2024-03-02T12:47:46;32.92;;;18.92;;
16472;SDS011;8347;52.486;13.432;2024-03-02T12:50:33;28.02;;;17.23;;
16472;SDS011;8347;52.486;13.432;2024-03-02T12:53:19;28.50;;;19.15;;
16472;SDS011;8347;52.486;13.432;2024-03-02T12:56:07;28.58;;;17.88;;
16472;SDS011;8347;52.486;13.432;2024-03-02T12:58:54;29.85;;;18.65;;
16472;SDS011;8347;52.486;13.432;2024-03-02T13:01:49;27.13;;;16.90;;
16472;SDS011;8347;52.486;13.432;2024-03-02T13:04:39;27.17;;;16.63;;
16472;SDS011;8347;52.486;13.432;2024-03-02T13:07:26;26.40;;;16.58;;
16472;SDS011;8347;52.486;13.432;2024-03-02T13:10:13;28.10;;;16.27;;
16472;SDS011;8347;52.486;13.432;2024-03-02T13:13:00;27.13;;;16.88;;
16472;SDS011;8347;52.486;13.432;2024-03-02T13:15:47;27.27;;;16.25;;
16472;SDS011;8347;52.486;13.432;2024-03-02T13:18:33;27.98;;;17.55;;
16472;SDS011;8347;52.486;13.432;2024-03-02T13:21:20;29.10;;;18.33;;
16472;SDS011;8347;52.486;13.432;2024-03-02T13:24:06;24.80;;;16.85;;
16472;SDS011;8347;52.486;13.432;2024-03-02T13:26:53;26.10;;;17.85;;
16472;SDS011;8347;52.486;13.432;2024-03-02T13:29:42;30.10;;;16.90;;
16472;SDS011;8347;52.486;13.432;2024-03-02T13:32:28;26.45;;;17.52;;
16472;SDS011;8347;52.486;13.432;2024-03-02T13:35:15;33.10;;;20.65;;
16472;SDS011;8347;52.486;13.432;2024-03-02T13:38:01;25.67;;;15.13;;
16472;SDS011;8347;52.486;13.432;2024-03-02T13:40:49;24.88;;;15.20;;
16472;SDS011;8347;52.486;13.432;2024-03-02T13:43:39;27.83;;;15.38;;
16472;SDS011;8347;52.486;13.432;2024-03-02T13:46:25;29.08;;;16.27;;
16472;SDS011;8347;52.486;13.432;2024-03-02T13:49:12;21.05;;;13.32;;
16472;SDS011;8347;52.486;13.432;2024-03-02T13:51:59;19.48;;;12.73;;
16472;SDS011;8347;52.486;13.432;2024-03-02T13:54:48;21.58;;;13.75;;
16472;SDS011;8347;52.486;13.432;2024-03-02T13:57:34;24.05;;;13.88;;
16472;SDS011;8347;52.486;13.432;2024-03-02T14:00:21;26.00;;;16.67;;
16472;SDS011;8347;52.486;13.432;2024-03-02T14:03:07;24.55;;;14.32;;
16472;SDS011;8347;52.486;13.432;2024-03-02T14:05:54;22.05;;;14.40;;
16472;SDS011;8347;52.486;13.432;2024-03-02T14:08:41;20.77;;;12.88;;
16472;SDS011;8347;52.486;13.432;2024-03-02T14:11:30;23.83;;;14.00;;
16472;SDS011;8347;52.486;13.432;2024-03-02T14:14:17;20.35;;;12.98;;
16472;SDS011;8347;52.486;13.432;2024-03-02T14:17:03;20.00;;;13.15;;
16472;SDS011;8347;52.486;13.432;2024-03-02T14:19:51;18.48;;;11.55;;
16472;SDS011;8347;52.486;13.432;2024-03-02T14:22:39;17.42;;;11.45;;
16472;SDS011;8347;52.486;13.432;2024-03-02T14:25:25;17.55;;;11.63;;
16472;SDS011;8347;52.486;13.432;2024-03-02T14:28:12;16.13;;;10.70;;
16472;SDS011;8347;52.486;13.432;2024-03-02T14:30:59;16.58;;;11.23;;
16472;SDS011;8347;52.486;13.432;2024-03-02T14:33:46;17.58;;;11.55;;
16472;SDS011;8347;52.486;13.432;2024-03-02T14:36:33;19.15;;;11.77;;
16472;SDS011;8347;52.486;13.432;2024-03-02T14:39:19;17.83;;;10.93;;
16472;SDS011;8347;52.486;13.432;2024-03-02T14:42:06;19.58;;;10.93;;
16472;SDS011;8347;52.486;13.432;2024-03-02T14:44:53;22.35;;;11.80;;
16472;SDS011;8347;52.486;13.432;2024-03-02T14:47:39;18.98;;;10.55;;
16472;SDS011;8347;52.486;13.432;2024-03-02T14:50:27;21.58;;;12.52;;
16472;SDS011;8347;52.486;13.432;2024-03-02T14:53:13;19.25;;;12.52;;
16472;SDS011;8347;52.486;13.432;2024-03-02T14:56:00;21.30;;;12.13;;
16472;SDS011;8347;52.486;13.432;2024-03-02T14:58:46;22.20;;;12.32;;
16472;SDS011;8347;52.486;13.432;2024-03-02T15:01:32;22.70;;;13.13;;
16472;SDS011;8347;52.486;13.432;2024-03-02T15:04:19;20.23;;;12.10;;
16472;SDS011;8347;52.486;13.432;2024-03-02T15:07:06;23.60;;;12.35;;
16472;SDS011;8347;52.486;13.432;2024-03-02T15:09:52;22.77;;;12.60;;
16472;SDS011;8347;52.486;13.432;2024-03-02T15:12:40;26.13;;;12.35;;
16472;SDS011;8347;52.486;13.432;2024-03-02T15:15:26;20.30;;;13.10;;
16472;SDS011;8347;52.486;13.432;2024-03-02T15:18:13;20.05;;;11.82;;
16472;SDS011;8347;52.486;13.432;2024-03-02T15:20:59;19.65;;;11.68;;
16472;SDS011;8347;52.486;13.432;2024-03-02T15:23:46;16.63;;;10.85;;
16472;SDS011;8347;52.486;13.432;2024-03-02T15:26:32;19.17;;;10.75;;
16472;SDS011;8347;52.486;13.432;2024-03-02T15:29:19;19.00;;;11.98;;
16472;SDS011;8347;52.486;13.432;2024-03-02T15:32:07;20.25;;;12.32;;
16472;SDS011;8347;52.486;13.432;2024-03-02T15:34:54;19.00;;;10.93;;
16472;SDS011;8347;52.486;13.432;2024-03-02T15:37:40;17.35;;;10.52;;
16472;SDS011;8347;52.486;13.432;2024-03-02T15:40:27;17.85;;;11.77;;
16472;SDS011;8347;52.486;13.432;2024-03-02T15:43:14;22.02;;;12.20;;
16472;SDS011;8347;52.486;13.432;2024-03-02T15:46:00;17.45;;;11.13;;
16472;SDS011;8347;52.486;13.432;2024-03-02T15:48:48;16.77;;;9.68;;
16472;SDS011;8347;52.486;13.432;2024-03-02T15:51:34;13.73;;;8.52;;
16472;SDS011;8347;52.486;13.432;2024-03-02T15:54:25;13.02;;;7.47;;
16472;SDS011;8347;52.486;13.432;2024-03-02T15:57:11;13.13;;;7.55;;
16472;SDS011;8347;52.486;13.432;2024-03-02T15:59:58;14.52;;;8.35;;
16472;SDS011;8347;52.486;13.432;2024-03-02T16:02:45;13.10;;;7.82;;
16472;SDS011;8347;52.486;13.432;2024-03-02T16:05:31;15.82;;;9.35;;
16472;SDS011;8347;52.486;13.432;2024-03-02T16:08:18;13.75;;;8.55;;
16472;SDS011;8347;52.486;13.432;2024-03-02T16:11:04;14.18;;;8.93;;
16472;SDS011;8347;52.486;13.432;2024-03-02T16:13:51;16.50;;;9.30;;
16472;SDS011;8347;52.486;13.432;2024-03-02T16:16:37;16.42;;;9.45;;
16472;SDS011;8347;52.486;13.432;2024-03-02T16:19:24;15.30;;;8.85;;
16472;SDS011;8347;52.486;13.432;2024-03-02T16:22:11;15.43;;;9.65;;
16472;SDS011;8347;52.486;13.432;2024-03-02T16:24:58;13.10;;;8.85;;